createdAt,value
2019-05-13T00:00:53.841Z,308.35
2019-05-13T00:01:53.984Z,308.13
2019-05-13T00:02:54.435Z,308.00
2019-05-13T00:03:54.204Z,308.10
2019-05-13T00:04:53.343Z,308.42
2019-05-13T00:05:53.740Z,308.33
2019-05-13T00:06:55.123Z,308.22
2019-05-13T00:07:53.956Z,308.44
2019-05-13T00:08:54.335Z,308.81
2019-05-13T00:09:54.367Z,308.10
2019-05-13T00:10:54.131Z,308.20
2019-05-13T00:11:54.079Z,308.39
2019-05-13T00:12:53.984Z,308.24
2019-05-13T00:13:53.748Z,308.37
2019-05-13T00:14:54.019Z,308.69
2019-05-13T00:15:54.363Z,308.07
2019-05-13T00:16:53.662Z,308.38
2019-05-13T00:17:54.329Z,308.37
2019-05-13T00:18:53.575Z,308.51
2019-05-13T00:19:53.297Z,308.63
2019-05-13T00:20:54.176Z,308.26
2019-05-13T00:21:54.622Z,308.20
2019-05-13T00:22:53.827Z,307.96
2019-05-13T00:23:53.564Z,308.68
2019-05-13T00:24:54.277Z,308.31
2019-05-13T00:25:54.514Z,308.86
2019-05-13T00:26:53.232Z,308.30
2019-05-13T00:27:53.652Z,308.52
2019-05-13T00:28:53.527Z,308.59
2019-05-13T00:29:53.532Z,308.18
2019-05-13T00:30:54.236Z,308.45
2019-05-13T00:31:54.009Z,308.06
2019-05-13T00:32:54.562Z,308.27
2019-05-13T00:33:53.285Z,308.32
2019-05-13T00:34:53.453Z,307.96
2019-05-13T00:35:53.470Z,308.17
2019-05-13T00:37:07.332Z,308.35
2019-05-13T00:37:54.345Z,308.24
2019-05-13T00:38:53.442Z,308.49
2019-05-13T00:39:54.330Z,308.27
2019-05-13T00:40:54.534Z,308.28
2019-05-13T00:41:53.226Z,308.59
2019-05-13T00:42:54.535Z,308.05
2019-05-13T00:43:53.231Z,308.44
2019-05-13T00:44:53.203Z,308.54
2019-05-13T00:45:53.459Z,308.09
2019-05-13T00:46:53.783Z,308.67
2019-05-13T00:47:53.693Z,308.10
2019-05-13T00:48:54.085Z,308.60
2019-05-13T00:49:54.118Z,308.58
2019-05-13T00:50:54.404Z,308.47
2019-05-13T00:51:53.405Z,307.92
2019-05-13T00:52:53.621Z,307.97
2019-05-13T00:53:53.748Z,308.17
2019-05-13T00:54:53.501Z,308.09
2019-05-13T00:55:53.627Z,308.62
2019-05-13T00:56:54.721Z,308.33
2019-05-13T00:57:54.072Z,308.12
2019-05-13T00:58:54.079Z,308.25
2019-05-13T00:59:54.064Z,308.19
2019-05-13T01:00:54.591Z,308.60
2019-05-13T01:01:53.360Z,307.95
2019-05-13T01:02:53.385Z,308.33
2019-05-13T01:03:53.280Z,308.22
2019-05-13T01:04:53.544Z,308.45
2019-05-13T01:05:53.523Z,308.25
2019-05-13T01:06:53.776Z,308.68
2019-05-13T01:07:53.697Z,308.30
2019-05-13T01:08:53.581Z,308.53
2019-05-13T01:09:53.476Z,308.60
2019-05-13T01:10:53.687Z,308.79
2019-05-13T01:11:53.678Z,307.84
2019-05-13T01:12:53.939Z,308.21
2019-05-13T01:13:53.549Z,308.60
2019-05-13T01:14:53.450Z,308.26
2019-05-13T01:15:54.384Z,308.13
2019-05-13T01:16:54.391Z,308.65
2019-05-13T01:17:53.485Z,308.73
2019-05-13T01:18:53.792Z,308.69
2019-05-13T01:19:53.789Z,308.35
2019-05-13T01:20:53.832Z,308.30
2019-05-13T01:21:54.035Z,308.38
2019-05-13T01:22:54.115Z,308.74
2019-05-13T01:23:54.337Z,308.59
2019-05-13T01:24:54.145Z,308.28
2019-05-13T01:25:54.472Z,308.30
2019-05-13T01:26:54.140Z,308.76
2019-05-13T01:27:53.740Z,308.59
2019-05-13T01:28:53.560Z,308.69
2019-05-13T01:29:53.481Z,308.52
2019-05-13T01:30:53.947Z,308.72
2019-05-13T01:31:53.844Z,308.91
2019-05-13T01:32:54.023Z,308.32
2019-05-13T01:33:53.762Z,308.28
2019-05-13T01:34:53.793Z,308.57
2019-05-13T01:35:53.772Z,308.38
2019-05-13T01:36:53.609Z,308.71
2019-05-13T01:37:53.819Z,308.49
2019-05-13T01:38:54.085Z,308.92
2019-05-13T01:39:54.029Z,308.75
2019-05-13T01:40:53.989Z,308.63
2019-05-13T01:41:54.065Z,308.77
2019-05-13T01:42:54.179Z,308.63
2019-05-13T01:43:54.403Z,308.46
2019-05-13T01:44:53.869Z,308.65
2019-05-13T01:45:53.725Z,308.57
2019-05-13T01:46:53.766Z,308.43
2019-05-13T01:47:53.818Z,308.84
2019-05-13T01:48:54.361Z,308.56
2019-05-13T01:49:54.137Z,308.32
2019-05-13T01:50:53.370Z,308.85
2019-05-13T01:51:54.058Z,308.58
2019-05-13T01:52:53.295Z,308.43
2019-05-13T01:53:53.400Z,308.74
2019-05-13T01:54:54.256Z,308.61
2019-05-13T01:55:53.289Z,308.64
2019-05-13T01:56:53.544Z,308.56
2019-05-13T01:57:53.328Z,308.66
2019-05-13T01:58:53.967Z,308.75
2019-05-13T01:59:53.838Z,308.50
2019-05-13T02:00:54.921Z,308.30
2019-05-13T02:01:53.986Z,308.83
2019-05-13T02:02:54.330Z,308.78
2019-05-13T02:03:54.375Z,308.62
2019-05-13T02:04:53.246Z,308.54
2019-05-13T02:05:54.192Z,308.69
2019-05-13T02:06:54.216Z,308.64
2019-05-13T02:07:59.587Z,308.54
2019-05-13T02:08:54.558Z,308.85
2019-05-13T02:09:53.402Z,308.69
2019-05-13T02:10:54.428Z,309.10
2019-05-13T02:11:53.815Z,308.91
2019-05-13T02:12:53.560Z,308.87
2019-05-13T02:13:54.069Z,308.27
2019-05-13T02:14:53.416Z,308.84
2019-05-13T02:15:51.840Z,308.61
2019-05-13T02:16:53.578Z,308.57
2019-05-13T02:17:53.697Z,309.19
2019-05-13T02:18:53.703Z,308.48
2019-05-13T02:19:53.951Z,309.08
2019-05-13T02:20:54.846Z,308.88
2019-05-13T02:21:54.152Z,308.88
2019-05-13T02:22:53.621Z,308.38
2019-05-13T02:23:53.650Z,308.59
2019-05-13T02:24:53.499Z,309.06
2019-05-13T02:25:53.801Z,309.03
2019-05-13T02:26:54.162Z,308.79
2019-05-13T02:27:54.132Z,309.06
2019-05-13T02:28:53.983Z,308.58
2019-05-13T02:29:53.913Z,308.70
2019-05-13T02:30:51.693Z,308.65
2019-05-13T02:31:55.767Z,308.23
2019-05-13T02:32:53.137Z,308.47
2019-05-13T02:33:53.178Z,309.03
2019-05-13T02:34:53.253Z,308.42
2019-05-13T02:35:53.190Z,308.95
2019-05-13T02:36:52.729Z,308.33
2019-05-13T02:37:52.521Z,308.62
2019-05-13T02:38:53.205Z,308.49
2019-05-13T02:39:53.179Z,308.52
2019-05-13T02:40:52.795Z,308.55
2019-05-13T02:41:52.776Z,308.89
2019-05-13T02:42:52.278Z,309.02
2019-05-13T02:43:52.564Z,308.58
2019-05-13T02:44:52.921Z,308.87
2019-05-13T02:45:53.333Z,308.46
2019-05-13T02:46:52.462Z,308.69
2019-05-13T02:47:52.140Z,308.38
2019-05-13T02:48:52.781Z,308.71
2019-05-13T02:49:53.387Z,308.84
2019-05-13T02:50:53.114Z,308.60
2019-05-13T02:51:54.752Z,308.74
2019-05-13T02:52:53.121Z,308.47
2019-05-13T02:53:52.383Z,308.80
2019-05-13T02:54:52.777Z,308.93
2019-05-13T02:55:52.388Z,308.41
2019-05-13T02:56:52.651Z,308.67
2019-05-13T02:57:52.775Z,308.55
2019-05-13T02:58:52.633Z,308.50
2019-05-13T02:59:52.634Z,308.50
2019-05-13T03:00:53.267Z,308.61
2019-05-13T03:01:53.363Z,308.86
2019-05-13T03:02:52.457Z,308.54
2019-05-13T03:03:52.906Z,308.60
2019-05-13T03:04:52.303Z,308.40
2019-05-13T03:05:52.675Z,309.09
2019-05-13T03:06:52.107Z,308.90
2019-05-13T03:07:53.030Z,308.29
2019-05-13T03:08:54.434Z,308.50
2019-05-13T03:09:52.731Z,308.55
2019-05-13T03:10:53.158Z,308.86
2019-05-13T03:11:53.604Z,308.75
2019-05-13T03:12:53.447Z,309.06
2019-05-13T03:13:52.915Z,308.71
2019-05-13T03:14:53.251Z,308.65
2019-05-13T03:15:52.149Z,309.00
2019-05-13T03:16:52.544Z,308.85
2019-05-13T03:17:52.444Z,309.14
2019-05-13T03:18:52.326Z,309.28
2019-05-13T03:19:53.078Z,308.88
2019-05-13T03:20:53.023Z,308.80
2019-05-13T03:21:52.422Z,308.79
2019-05-13T03:22:52.533Z,309.19
2019-05-13T03:23:52.588Z,308.73
2019-05-13T03:24:52.372Z,308.70
2019-05-13T03:25:53.664Z,308.61
2019-05-13T03:26:53.247Z,308.99
2019-05-13T03:27:54.009Z,308.97
2019-05-13T03:28:52.404Z,309.26
2019-05-13T03:29:53.320Z,309.13
2019-05-13T03:30:56.475Z,308.88
2019-05-13T03:31:55.919Z,309.10
2019-05-13T03:32:59.868Z,309.12
2019-05-13T03:33:55.763Z,309.54
2019-05-13T03:34:55.858Z,309.11
2019-05-13T03:35:55.935Z,309.32
2019-05-13T03:36:57.050Z,309.56
2019-05-13T03:37:52.764Z,309.80
2019-05-13T03:39:05.224Z,309.39
2019-05-13T03:39:52.408Z,309.65
2019-05-13T03:40:52.617Z,309.88
2019-05-13T03:41:52.895Z,309.65
2019-05-13T03:42:53.609Z,309.42
2019-05-13T03:43:53.304Z,309.71
2019-05-13T03:44:52.441Z,309.85
2019-05-13T03:45:52.616Z,309.78
2019-05-13T03:46:52.936Z,309.63
2019-05-13T03:47:52.699Z,309.24
2019-05-13T03:48:52.951Z,309.37
2019-05-13T03:49:53.282Z,309.07
2019-05-13T03:50:53.321Z,309.91
2019-05-13T03:51:53.418Z,309.50
2019-05-13T03:52:52.606Z,309.75
2019-05-13T03:53:53.411Z,309.88
2019-05-13T03:54:52.115Z,310.02
2019-05-13T03:55:53.895Z,309.67
2019-05-13T03:56:53.065Z,310.17
2019-05-13T03:57:53.215Z,310.42
2019-05-13T03:58:53.659Z,310.12
2019-05-13T03:59:52.626Z,310.00
2019-05-13T04:00:51.848Z,310.60
2019-05-13T04:01:52.401Z,310.61
2019-05-13T04:02:52.155Z,310.01
2019-05-13T04:03:52.808Z,309.95
2019-05-13T04:04:53.017Z,310.69
2019-05-13T04:05:52.824Z,310.19
2019-05-13T04:06:53.006Z,310.59
2019-05-13T04:07:52.322Z,310.06
2019-05-13T04:08:53.717Z,310.59
2019-05-13T04:09:52.503Z,310.52
2019-05-13T04:10:52.496Z,309.73
2019-05-13T04:11:52.654Z,310.13
2019-05-13T04:12:52.717Z,310.15
2019-05-13T04:13:52.600Z,310.09
2019-05-13T04:14:52.798Z,309.62
2019-05-13T04:15:52.982Z,309.48
2019-05-13T04:16:53.200Z,309.55
2019-05-13T04:17:53.078Z,309.84
2019-05-13T04:18:53.650Z,309.69
2019-05-13T04:19:52.982Z,309.78
2019-05-13T04:20:53.039Z,309.88
2019-05-13T04:21:52.883Z,309.88
2019-05-13T04:22:52.950Z,309.62
2019-05-13T04:23:53.071Z,309.53
2019-05-13T04:24:53.006Z,309.74
2019-05-13T04:25:53.700Z,309.28
2019-05-13T04:26:53.325Z,310.14
2019-05-13T04:27:52.360Z,309.63
2019-05-13T04:28:52.585Z,309.81
2019-05-13T04:29:52.745Z,309.45
2019-05-13T04:30:52.626Z,309.50
2019-05-13T04:31:53.240Z,309.04
2019-05-13T04:32:53.297Z,309.40
2019-05-13T04:33:53.126Z,309.65
2019-05-13T04:34:52.906Z,309.80
2019-05-13T04:35:52.954Z,309.72
2019-05-13T04:36:52.021Z,308.88
2019-05-13T04:37:52.656Z,309.27
2019-05-13T04:38:52.891Z,309.52
2019-05-13T04:39:54.938Z,309.00
2019-05-13T04:40:52.844Z,309.90
2019-05-13T04:41:52.897Z,309.50
2019-05-13T04:42:53.614Z,310.00
2019-05-13T04:43:53.660Z,310.19
2019-05-13T04:44:52.951Z,309.99
2019-05-13T04:45:52.384Z,310.57
2019-05-13T04:46:52.287Z,310.71
2019-05-13T04:47:52.953Z,310.94
2019-05-13T04:48:53.095Z,311.06
2019-05-13T04:49:53.215Z,310.78
2019-05-13T04:50:53.169Z,311.19
2019-05-13T04:51:52.321Z,311.17
2019-05-13T04:52:52.523Z,311.22
2019-05-13T04:53:53.654Z,311.52
2019-05-13T04:54:52.782Z,311.56
2019-05-13T04:55:52.681Z,311.66
2019-05-13T04:56:52.556Z,311.79
2019-05-13T04:57:53.408Z,310.97
2019-05-13T04:58:52.837Z,310.78
2019-05-13T04:59:51.793Z,311.26
2019-05-13T05:01:01.646Z,311.02
2019-05-13T05:01:57.859Z,311.40
2019-05-13T05:02:55.057Z,311.15
2019-05-13T05:03:53.109Z,310.86
2019-05-13T05:04:52.500Z,311.23
2019-05-13T05:05:52.691Z,311.30
2019-05-13T05:06:52.555Z,311.35
2019-05-13T05:07:52.528Z,311.40
2019-05-13T05:08:52.309Z,311.24
2019-05-13T05:10:16.833Z,311.05
2019-05-13T05:10:53.855Z,311.69
2019-05-13T05:11:52.709Z,311.67
2019-05-13T05:12:51.875Z,310.88
2019-05-13T05:13:53.084Z,311.13
2019-05-13T05:14:52.270Z,310.82
2019-05-13T05:15:52.311Z,310.48
2019-05-13T05:16:52.123Z,310.41
2019-05-13T05:17:52.195Z,310.35
2019-05-13T05:18:52.477Z,310.76
2019-05-13T05:19:52.264Z,310.63
2019-05-13T05:20:51.796Z,310.41
2019-05-13T05:21:52.656Z,310.47
2019-05-13T05:22:51.279Z,310.35
2019-05-13T05:23:51.525Z,310.11
2019-05-13T05:24:51.898Z,310.04
2019-05-13T05:25:52.046Z,309.83
2019-05-13T05:26:52.064Z,309.46
2019-05-13T05:27:51.469Z,308.97
2019-05-13T05:28:51.763Z,309.07
2019-05-13T05:29:51.601Z,308.18
2019-05-13T05:30:51.773Z,308.15
2019-05-13T05:31:51.806Z,308.21
2019-05-13T05:32:51.653Z,307.67
2019-05-13T05:33:51.626Z,306.52
2019-05-13T05:34:51.793Z,306.90
2019-05-13T05:35:51.893Z,305.69
2019-05-13T05:36:51.898Z,306.13
2019-05-13T05:37:52.094Z,306.14
2019-05-13T05:38:51.376Z,306.34
2019-05-13T05:39:51.248Z,306.04
2019-05-13T05:40:51.117Z,305.90
2019-05-13T05:41:51.427Z,305.63
2019-05-13T05:42:51.678Z,305.39
2019-05-13T05:43:52.046Z,305.67
2019-05-13T05:44:51.683Z,305.74
2019-05-13T05:45:51.274Z,305.72
2019-05-13T05:46:51.512Z,306.10
2019-05-13T05:47:51.128Z,305.61
2019-05-13T05:48:50.714Z,305.78
2019-05-13T05:49:51.487Z,306.09
2019-05-13T05:50:51.567Z,306.13
2019-05-13T05:51:51.496Z,306.35
2019-05-13T05:52:51.350Z,306.26
2019-05-13T05:53:51.616Z,306.24
2019-05-13T05:54:51.603Z,306.58
2019-05-13T05:55:51.638Z,306.96
2019-05-13T05:56:51.809Z,306.95
2019-05-13T05:57:49.354Z,307.02
2019-05-13T05:58:49.340Z,306.93
2019-05-13T05:59:51.079Z,307.03
2019-05-13T06:00:51.951Z,306.90
2019-05-13T06:01:52.340Z,307.27
2019-05-13T06:02:49.305Z,307.10
2019-05-13T06:03:49.287Z,307.03
2019-05-13T06:04:52.003Z,307.41
2019-05-13T06:05:51.206Z,307.65
2019-05-13T06:06:52.066Z,308.04
2019-05-13T06:07:51.334Z,307.27
2019-05-13T06:08:51.511Z,308.16
2019-05-13T06:09:51.444Z,307.58
2019-05-13T06:10:52.920Z,307.62
2019-05-13T06:11:49.225Z,307.55
2019-05-13T06:12:49.180Z,307.68
2019-05-13T06:13:52.156Z,307.73
2019-05-13T06:14:52.408Z,307.67
2019-05-13T06:15:51.251Z,307.89
2019-05-13T06:16:51.715Z,308.24
2019-05-13T06:17:51.634Z,308.06
2019-05-13T06:18:49.114Z,308.15
2019-05-13T06:19:51.094Z,308.44
2019-05-13T06:20:51.229Z,308.12
2019-05-13T06:21:51.283Z,308.30
2019-05-13T06:22:51.420Z,308.37
2019-05-13T06:23:51.710Z,308.62
2019-05-13T06:24:49.077Z,308.37
2019-05-13T06:25:49.083Z,308.11
2019-05-13T06:26:49.031Z,308.58
2019-05-13T06:27:51.114Z,308.44
2019-05-13T06:28:49.008Z,308.63
2019-05-13T06:29:50.315Z,308.44
2019-05-13T06:30:51.286Z,308.51
2019-05-13T06:31:48.983Z,308.48
2019-05-13T06:32:48.970Z,309.12
2019-05-13T06:33:51.288Z,309.06
2019-05-13T06:34:48.937Z,308.87
2019-05-13T06:35:48.945Z,308.96
2019-05-13T06:36:48.915Z,308.63
2019-05-13T06:37:48.905Z,308.47
2019-05-13T06:38:51.170Z,309.14
2019-05-13T06:39:51.087Z,309.37
2019-05-13T06:41:00.474Z,308.69
2019-05-13T06:41:51.803Z,308.68
2019-05-13T06:42:48.851Z,309.06
2019-05-13T06:43:48.833Z,309.05
2019-05-13T06:44:51.211Z,309.06
2019-05-13T06:45:51.232Z,309.11
2019-05-13T06:46:51.482Z,309.07
2019-05-13T06:47:48.818Z,308.85
2019-05-13T06:48:48.809Z,309.01
2019-05-13T06:49:48.767Z,309.27
2019-05-13T06:50:48.755Z,309.53
2019-05-13T06:51:48.776Z,309.09
2019-05-13T06:52:51.209Z,309.35
2019-05-13T06:53:48.759Z,309.11
2019-05-13T06:54:48.725Z,309.46
2019-05-13T06:55:48.703Z,309.28
2019-05-13T06:56:48.692Z,309.47
2019-05-13T06:57:48.686Z,309.56
2019-05-13T06:58:48.697Z,309.46
2019-05-13T06:59:48.656Z,309.33
2019-05-13T07:00:48.654Z,308.73
2019-05-13T07:01:48.695Z,308.83
2019-05-13T07:02:48.638Z,309.45
2019-05-13T07:03:48.621Z,309.22
2019-05-13T07:04:48.603Z,309.13
2019-05-13T07:05:48.590Z,308.98
2019-05-13T07:06:48.577Z,309.05
2019-05-13T07:07:48.564Z,309.38
2019-05-13T07:08:48.572Z,309.36
2019-05-13T07:09:48.558Z,309.06
2019-05-13T07:10:48.561Z,309.08
2019-05-13T07:11:48.566Z,309.15
2019-05-13T07:12:48.511Z,309.55
2019-05-13T07:13:48.498Z,309.37
2019-05-13T07:14:48.493Z,309.15
2019-05-13T07:15:48.484Z,309.44
2019-05-13T07:16:48.462Z,309.23
2019-05-13T07:17:48.456Z,309.46
2019-05-13T07:18:48.468Z,309.66
2019-05-13T07:19:48.431Z,309.65
2019-05-13T07:20:48.434Z,309.30
2019-05-13T07:21:48.432Z,309.64
2019-05-13T07:22:48.405Z,309.42
2019-05-13T07:23:53.979Z,309.09
2019-05-13T07:24:51.780Z,309.12
2019-05-13T07:25:48.371Z,308.53
2019-05-13T07:26:48.367Z,309.42
2019-05-13T07:27:48.366Z,309.41
2019-05-13T07:28:48.331Z,309.58
2019-05-13T07:29:48.315Z,309.36
2019-05-13T07:30:48.308Z,309.28
2019-05-13T07:31:48.301Z,309.06
2019-05-13T07:32:48.306Z,309.22
2019-05-13T07:33:48.277Z,309.57
2019-05-13T07:34:48.280Z,309.70
2019-05-13T07:35:48.283Z,309.53
2019-05-13T07:36:48.242Z,309.60
2019-05-13T07:37:48.240Z,309.94
2019-05-13T07:38:48.230Z,308.80
2019-05-13T07:39:48.210Z,309.66
2019-05-13T07:40:48.195Z,309.66
2019-05-13T07:41:48.187Z,309.65
2019-05-13T07:42:48.171Z,309.50
2019-05-13T07:43:48.173Z,309.45
2019-05-13T07:44:48.153Z,309.25
2019-05-13T07:45:48.139Z,309.40
2019-05-13T07:46:48.157Z,309.27
2019-05-13T07:47:48.112Z,309.17
2019-05-13T07:48:48.110Z,308.95
2019-05-13T07:49:48.094Z,309.01
2019-05-13T07:50:59.028Z,308.90
2019-05-13T07:51:49.069Z,309.39
2019-05-13T07:52:48.063Z,308.98
2019-05-13T07:53:48.058Z,310.12
2019-05-13T07:54:48.049Z,309.28
2019-05-13T07:55:48.035Z,309.07
2019-05-13T07:56:48.022Z,309.55
2019-05-13T07:57:48.014Z,309.09
2019-05-13T07:58:47.993Z,309.15
2019-05-13T07:59:48.001Z,309.44
2019-05-13T08:00:47.974Z,309.02
2019-05-13T08:01:47.959Z,308.96
2019-05-13T08:02:47.953Z,309.84
2019-05-13T08:03:47.935Z,309.27
2019-05-13T08:04:49.485Z,309.48
2019-05-13T08:05:47.935Z,309.26
2019-05-13T08:06:47.903Z,309.55
2019-05-13T08:07:47.894Z,309.50
2019-05-13T08:08:47.881Z,309.63
2019-05-13T08:09:47.871Z,309.74
2019-05-13T08:10:47.867Z,309.70
2019-05-13T08:12:04.307Z,309.79
2019-05-13T08:12:48.839Z,309.56
2019-05-13T08:13:47.829Z,309.79
2019-05-13T08:14:47.814Z,309.72
2019-05-13T08:15:47.805Z,309.25
2019-05-13T08:16:47.807Z,309.80
2019-05-13T08:17:48.462Z,309.75
2019-05-13T08:18:47.771Z,309.40
2019-05-13T08:19:47.770Z,309.42
2019-05-13T08:20:47.756Z,309.83
2019-05-13T08:21:47.737Z,309.41
2019-05-13T08:22:47.785Z,309.53
2019-05-13T08:23:47.738Z,309.56
2019-05-13T08:24:50.950Z,309.34
2019-05-13T08:25:48.690Z,309.63
2019-05-13T08:26:50.221Z,309.51
2019-05-13T08:27:48.673Z,309.58
2019-05-13T08:29:00.387Z,309.20
2019-05-13T08:29:48.658Z,309.18
2019-05-13T08:30:47.642Z,309.35
2019-05-13T08:31:48.466Z,309.23
2019-05-13T08:32:47.621Z,309.51
2019-05-13T08:33:47.620Z,309.48
2019-05-13T08:34:52.528Z,309.84
2019-05-13T08:35:53.899Z,309.09
2019-05-13T08:36:48.597Z,309.88
2019-05-13T08:37:47.575Z,309.12
2019-05-13T08:38:47.631Z,309.40
2019-05-13T08:39:47.564Z,309.15
2019-05-13T08:40:47.525Z,309.51
2019-05-13T08:41:47.516Z,309.76
2019-05-13T08:42:47.509Z,310.04
2019-05-13T08:43:47.498Z,309.31
2019-05-13T08:44:47.502Z,309.78
2019-05-13T08:45:47.493Z,309.13
2019-05-13T08:46:47.509Z,309.38
2019-05-13T08:47:47.444Z,308.92
2019-05-13T08:48:47.435Z,308.83
2019-05-13T08:49:47.420Z,309.07
2019-05-13T08:50:47.423Z,308.64
2019-05-13T08:51:47.399Z,308.82
2019-05-13T08:52:47.388Z,308.79
2019-05-13T08:53:47.389Z,309.10
2019-05-13T08:54:47.364Z,308.73
2019-05-13T08:55:47.395Z,309.21
2019-05-13T08:56:47.363Z,309.19
2019-05-13T08:57:47.332Z,309.27
2019-05-13T08:58:47.322Z,309.05
2019-05-13T08:59:47.332Z,308.77
2019-05-13T09:00:47.298Z,309.02
2019-05-13T09:01:47.293Z,308.98
2019-05-13T09:02:47.270Z,309.07
2019-05-13T09:03:47.265Z,309.21
2019-05-13T09:04:47.248Z,308.83
2019-05-13T09:05:47.240Z,308.97
2019-05-13T09:06:47.239Z,308.89
2019-05-13T09:07:47.235Z,308.90
2019-05-13T09:08:47.221Z,309.07
2019-05-13T09:09:47.195Z,308.63
2019-05-13T09:10:47.195Z,308.64
2019-05-13T09:11:47.171Z,308.40
2019-05-13T09:12:47.163Z,308.76
2019-05-13T09:13:47.147Z,308.60
2019-05-13T09:14:47.195Z,309.15
2019-05-13T09:15:47.125Z,308.95
2019-05-13T09:16:47.117Z,308.88
2019-05-13T09:17:47.102Z,308.62
2019-05-13T09:18:47.089Z,308.93
2019-05-13T09:19:47.095Z,308.67
2019-05-13T09:20:47.067Z,308.98
2019-05-13T09:21:47.056Z,308.67
2019-05-13T09:22:47.047Z,308.47
2019-05-13T09:23:47.065Z,309.06
2019-05-13T09:24:47.036Z,308.90
2019-05-13T09:25:47.019Z,308.56
2019-05-13T09:26:46.997Z,308.81
2019-05-13T09:27:46.990Z,309.29
2019-05-13T09:28:46.979Z,308.39
2019-05-13T09:29:46.980Z,308.45
2019-05-13T09:30:46.956Z,308.78
2019-05-13T09:31:46.940Z,308.81
2019-05-13T09:32:46.949Z,308.63
2019-05-13T09:33:46.919Z,308.15
2019-05-13T09:34:46.911Z,308.57
2019-05-13T09:35:50.034Z,308.75
2019-05-13T09:36:46.881Z,309.31
2019-05-13T09:37:46.878Z,308.24
2019-05-13T09:38:46.881Z,308.87
2019-05-13T09:39:46.859Z,308.57
2019-05-13T09:40:46.869Z,308.51
2019-05-13T09:41:46.828Z,308.29
2019-05-13T09:42:51.620Z,308.95
2019-05-13T09:43:47.809Z,308.31
2019-05-13T09:44:46.795Z,308.55
2019-05-13T09:45:46.795Z,308.70
2019-05-13T09:46:46.796Z,308.46
2019-05-13T09:47:47.026Z,308.18
2019-05-13T09:48:46.751Z,308.15
2019-05-13T09:49:46.770Z,308.12
2019-05-13T09:50:46.730Z,308.45
2019-05-13T09:51:46.720Z,308.77
2019-05-13T09:52:46.704Z,308.62
2019-05-13T09:53:46.695Z,308.72
2019-05-13T09:54:46.686Z,308.43
2019-05-13T09:55:46.699Z,308.40
2019-05-13T09:56:46.670Z,308.34
2019-05-13T09:57:46.654Z,308.05
2019-05-13T09:58:46.638Z,308.03
2019-05-13T09:59:46.644Z,308.38
2019-05-13T10:00:46.622Z,308.41
2019-05-13T10:01:46.606Z,308.04
2019-05-13T10:02:46.592Z,308.63
2019-05-13T10:03:54.922Z,308.50
2019-05-13T10:04:47.570Z,308.33
2019-05-13T10:05:46.560Z,307.81
2019-05-13T10:06:46.572Z,308.53
2019-05-13T10:07:46.538Z,308.00
2019-05-13T10:08:46.552Z,308.21
2019-05-13T10:09:48.415Z,308.18
2019-05-13T10:10:46.522Z,308.21
2019-05-13T10:11:46.518Z,307.97
2019-05-13T10:13:07.055Z,308.19
2019-05-13T10:13:47.470Z,307.95
2019-05-13T10:20:36.227Z,306.32
2019-05-13T10:21:36.190Z,308.11
2019-05-13T10:23:07.984Z,306.30
2019-05-13T10:24:07.958Z,307.47
2019-05-13T10:25:39.754Z,306.52
2019-05-13T10:26:42.654Z,307.25
2019-05-13T10:28:13.303Z,306.30
2019-05-13T10:29:12.513Z,307.71
2019-05-13T10:30:12.505Z,307.17
2019-05-13T10:31:12.482Z,307.56
2019-05-13T10:32:12.470Z,307.35
2019-05-13T10:33:12.685Z,307.52
2019-05-13T10:34:14.101Z,307.57
2019-05-13T10:35:12.431Z,308.00
2019-05-13T10:36:12.495Z,307.75
2019-05-13T10:37:12.409Z,308.12
2019-05-13T10:38:13.413Z,308.02
2019-05-13T10:39:12.410Z,308.21
2019-05-13T10:40:12.382Z,308.47
2019-05-13T10:41:12.406Z,308.42
2019-05-13T10:42:12.420Z,308.53
2019-05-13T10:43:30.074Z,308.31
2019-05-13T10:44:13.332Z,308.37
2019-05-13T10:45:13.060Z,308.25
2019-05-13T10:46:12.855Z,308.12
2019-05-13T10:47:12.329Z,308.44
2019-05-13T10:48:13.451Z,308.36
2019-05-13T10:49:12.531Z,308.63
2019-05-13T10:50:12.269Z,308.60
2019-05-13T10:52:13.242Z,307.95
2019-05-13T10:53:12.457Z,308.27
2019-05-13T10:54:12.218Z,308.00
2019-05-13T10:55:13.030Z,308.18
2019-05-13T10:56:12.199Z,308.15
2019-05-13T10:57:13.755Z,308.28
2019-05-13T10:58:12.439Z,308.42
2019-05-13T10:59:12.771Z,308.64
2019-05-13T11:00:12.447Z,307.99
2019-05-13T11:01:12.160Z,307.97
2019-05-13T11:02:13.395Z,308.15
2019-05-13T11:03:12.299Z,308.29
2019-05-13T11:04:13.513Z,308.05
2019-05-13T11:05:12.494Z,308.04
2019-05-13T11:06:12.091Z,308.74
2019-05-13T11:07:12.275Z,308.30
2019-05-13T11:08:12.065Z,308.15
2019-05-13T11:09:12.956Z,308.12
2019-05-13T11:10:13.338Z,308.09
2019-05-13T11:11:12.992Z,308.57
2019-05-13T11:12:12.421Z,308.17
2019-05-13T11:13:12.014Z,308.43
2019-05-13T11:14:15.557Z,308.44
2019-05-13T11:15:11.988Z,307.80
2019-05-13T11:16:12.324Z,308.36
2019-05-13T11:17:12.960Z,308.35
2019-05-13T11:18:19.079Z,308.25
2019-05-13T11:19:12.943Z,308.20
2019-05-13T11:20:12.479Z,307.86
2019-05-13T11:21:12.998Z,307.60
2019-05-13T11:22:12.440Z,308.03
2019-05-13T11:23:12.360Z,308.20
2019-05-13T11:24:12.781Z,307.74
2019-05-13T11:25:12.462Z,307.94
2019-05-13T11:26:12.910Z,307.46
2019-05-13T11:27:12.092Z,307.88
2019-05-13T11:28:12.355Z,308.05
2019-05-13T11:29:12.229Z,307.67
2019-05-13T11:30:11.823Z,306.75
2019-05-13T11:31:11.814Z,307.12
2019-05-13T11:32:13.298Z,307.71
2019-05-13T11:33:11.800Z,307.56
2019-05-13T11:34:11.776Z,307.94
2019-05-13T11:35:12.810Z,307.45
2019-05-13T11:36:12.896Z,307.20
2019-05-13T11:37:12.408Z,307.72
2019-05-13T11:38:12.276Z,307.36
2019-05-13T11:39:13.059Z,307.28
2019-05-13T11:40:12.132Z,307.13
2019-05-13T11:41:11.877Z,307.48
2019-05-13T11:42:13.650Z,307.98
2019-05-13T11:43:12.276Z,307.46
2019-05-13T11:44:16.044Z,307.67
2019-05-13T11:45:11.934Z,307.87
2019-05-13T11:46:11.641Z,307.66
2019-05-13T11:47:12.711Z,307.36
2019-05-13T11:48:13.216Z,307.53
2019-05-13T11:49:11.921Z,307.25
2019-05-13T11:50:12.108Z,307.60
2019-05-13T11:51:13.057Z,307.68
2019-05-13T11:52:12.103Z,307.49
2019-05-13T11:53:31.409Z,307.35
2019-05-13T11:54:13.939Z,307.67
2019-05-13T11:55:13.021Z,307.77
2019-05-13T11:56:12.179Z,307.58
2019-05-13T11:57:12.416Z,307.73
2019-05-13T11:58:13.883Z,306.70
2019-05-13T11:59:14.130Z,307.18
2019-05-13T12:00:13.475Z,307.22
2019-05-13T12:01:11.502Z,307.83
2019-05-13T12:02:13.660Z,307.34
2019-05-13T12:03:11.460Z,307.49
2019-05-13T12:04:11.450Z,307.25
2019-05-13T12:05:11.437Z,307.58
2019-05-13T12:06:11.435Z,307.43
2019-05-13T12:07:13.247Z,307.61
2019-05-13T12:08:12.680Z,307.63
2019-05-13T12:09:12.969Z,307.94
2019-05-13T12:10:12.446Z,308.14
2019-05-13T12:11:13.964Z,307.67
2019-05-13T12:12:13.071Z,308.10
2019-05-13T12:13:12.538Z,307.42
2019-05-13T12:14:37.259Z,307.85
2019-05-13T12:15:38.869Z,307.39
2019-05-13T12:16:13.033Z,307.76
2019-05-13T12:17:14.098Z,307.99
2019-05-13T12:18:12.613Z,307.67
2019-05-13T12:19:11.995Z,307.73
2019-05-13T12:20:12.193Z,307.73
2019-05-13T12:21:12.373Z,307.97
2019-05-13T12:22:13.118Z,307.82
2019-05-13T12:23:12.988Z,307.42
2019-05-13T12:24:11.493Z,307.84
2019-05-13T12:25:13.737Z,307.54
2019-05-13T12:26:12.883Z,307.82
2019-05-13T12:27:11.584Z,307.76
2019-05-13T12:28:11.553Z,307.53
2019-05-13T12:29:17.875Z,308.10
2019-05-13T12:30:12.652Z,308.05
2019-05-13T12:31:12.150Z,308.02
2019-05-13T12:32:13.544Z,308.08
2019-05-13T12:33:13.507Z,308.06
2019-05-13T12:34:13.076Z,308.55
2019-05-13T12:35:13.339Z,308.10
2019-05-13T12:36:17.755Z,308.52
2019-05-13T12:37:12.380Z,308.13